createdAt,value
2019-02-11T00:01:06.523Z,4.33
2019-02-11T00:05:10.923Z,4.80
2019-02-11T00:09:15.189Z,5.20
2019-02-11T00:13:19.424Z,5.17
2019-02-11T00:17:23.822Z,4.80
2019-02-11T00:21:28.234Z,5.40
2019-02-11T00:25:32.547Z,4.83
2019-02-11T00:29:37.495Z,4.97
2019-02-11T00:33:41.761Z,5.20
2019-02-11T00:37:47.589Z,4.50
2019-02-11T00:41:53.788Z,4.90
2019-02-11T00:45:58.163Z,4.73
2019-02-11T00:50:02.875Z,4.23
2019-02-11T00:54:07.196Z,4.33
2019-02-11T00:58:11.512Z,3.90
2019-02-11T01:02:15.926Z,4.70
2019-02-11T01:06:20.277Z,4.67
2019-02-11T01:10:24.555Z,4.80
2019-02-11T01:14:29.006Z,4.00
2019-02-11T01:18:33.281Z,4.87
2019-02-11T01:22:37.506Z,4.10
2019-02-11T01:26:41.803Z,4.00
2019-02-11T01:31:52.163Z,4.07
2019-02-11T01:35:56.341Z,3.57
2019-02-11T01:40:00.595Z,4.33
2019-02-11T01:44:04.914Z,3.60
2019-02-11T01:48:09.099Z,3.63
2019-02-11T01:52:13.286Z,4.23
2019-02-11T01:56:17.485Z,3.90
2019-02-11T02:00:21.678Z,4.93
2019-02-11T02:04:25.802Z,4.20
2019-02-11T02:08:30.070Z,3.20
2019-02-11T02:12:34.318Z,2.50
2019-02-11T02:16:38.518Z,2.47
2019-02-11T02:20:42.700Z,2.00
2019-02-11T02:24:46.866Z,2.00
2019-02-11T02:28:51.087Z,2.40
2019-02-11T02:32:55.279Z,1.97
2019-02-11T02:36:59.554Z,2.17
2019-02-11T02:41:03.731Z,2.07
2019-02-11T02:45:08.705Z,1.67
2019-02-11T02:49:22.119Z,2.17
2019-02-11T02:53:26.314Z,2.40
2019-02-11T02:57:30.704Z,2.53
2019-02-11T03:01:34.891Z,2.83
2019-02-11T03:05:39.376Z,3.17
2019-02-11T03:09:43.846Z,3.00
2019-02-11T03:13:48.432Z,2.70
2019-02-11T03:17:52.603Z,3.03
2019-02-11T03:21:56.761Z,2.97
2019-02-11T03:26:00.878Z,2.73
2019-02-11T03:30:05.605Z,3.90
2019-02-11T03:34:10.408Z,3.03
2019-02-11T03:38:14.549Z,2.87
2019-02-11T03:42:18.669Z,2.17
2019-02-11T03:46:22.863Z,2.23
2019-02-11T03:50:27.058Z,2.80
2019-02-11T03:54:31.403Z,2.70
2019-02-11T03:58:35.620Z,2.70
2019-02-11T04:02:39.789Z,2.53
2019-02-11T04:06:44.022Z,2.13
2019-02-11T04:10:48.604Z,2.63
2019-02-11T04:14:53.207Z,2.20
2019-02-11T04:18:57.692Z,2.80
2019-02-11T04:23:01.947Z,2.87
2019-02-11T04:27:06.145Z,2.27
2019-02-11T04:31:12.309Z,3.37
2019-02-11T04:35:16.639Z,2.67
2019-02-11T04:39:20.913Z,3.13
2019-02-11T04:43:25.176Z,2.90
2019-02-11T04:47:29.430Z,2.20
2019-02-11T04:51:33.653Z,1.87
2019-02-11T04:55:37.936Z,3.00
2019-02-11T04:59:42.488Z,2.40
2019-02-11T05:03:46.675Z,2.40
2019-02-11T05:07:51.141Z,2.90
2019-02-11T05:11:55.455Z,2.63
2019-02-11T05:15:59.832Z,2.43
2019-02-11T05:20:04.557Z,2.10
2019-02-11T05:24:08.750Z,2.63
2019-02-11T05:28:12.943Z,2.10
2019-02-11T05:32:17.151Z,2.20
2019-02-11T05:36:21.393Z,2.23
2019-02-11T05:40:25.587Z,2.63
2019-02-11T05:44:29.778Z,2.23
2019-02-11T05:48:33.983Z,2.27
2019-02-11T05:52:38.171Z,2.07
2019-02-11T05:56:42.364Z,2.93
2019-02-11T06:00:46.555Z,2.80
2019-02-11T06:04:50.974Z,2.03
2019-02-11T06:08:55.247Z,2.27
2019-02-11T06:12:59.504Z,2.90
2019-02-11T06:17:03.699Z,3.07
2019-02-11T06:21:07.893Z,2.20
2019-02-11T06:25:12.102Z,2.17
2019-02-11T06:29:16.715Z,2.40
2019-02-11T06:33:21.039Z,2.60
2019-02-11T06:37:25.251Z,2.73
2019-02-11T06:41:29.462Z,2.00
2019-02-11T06:45:33.586Z,2.43
2019-02-11T06:49:37.805Z,2.87
2019-02-11T06:53:42.124Z,2.47
2019-02-11T06:57:46.359Z,2.80
2019-02-11T07:01:50.563Z,2.70
2019-02-11T07:05:55.839Z,2.10
2019-02-11T07:10:00.030Z,2.80
2019-02-11T07:14:04.307Z,2.37
2019-02-11T07:18:08.514Z,2.80
2019-02-11T07:22:12.786Z,2.50
2019-02-11T07:26:16.922Z,2.70
2019-02-11T07:30:22.165Z,2.80
2019-02-11T07:34:26.427Z,2.70
2019-02-11T07:38:30.627Z,2.50
2019-02-11T07:42:46.014Z,2.70
2019-02-11T07:46:56.870Z,2.60
2019-02-11T07:51:01.214Z,2.40
2019-02-11T07:55:05.843Z,2.90
2019-02-11T07:59:13.013Z,2.70
2019-02-11T08:03:17.198Z,2.40
2019-02-11T08:07:21.444Z,2.67
2019-02-11T08:11:25.667Z,2.53
2019-02-11T08:15:38.061Z,2.67
2019-02-11T08:19:36.628Z,3.50
2019-02-11T08:23:40.888Z,3.47
2019-02-11T08:27:45.158Z,3.13
2019-02-11T08:31:49.358Z,3.07
2019-02-11T08:35:53.623Z,2.60
2019-02-11T08:39:57.771Z,3.37
2019-02-11T08:44:02.158Z,2.63
2019-02-11T08:48:06.567Z,2.47
2019-02-11T08:52:10.742Z,3.27
2019-02-11T08:56:15.018Z,2.80
2019-02-11T09:00:19.207Z,2.77
2019-02-11T09:04:23.463Z,2.97
2019-02-11T09:08:27.777Z,3.50
2019-02-11T09:12:32.026Z,3.80
2019-02-11T09:16:36.276Z,3.27
2019-02-11T09:20:42.100Z,2.90
2019-02-11T09:24:46.458Z,3.13
2019-02-11T09:28:50.840Z,2.83
2019-02-11T09:32:55.010Z,3.40
2019-02-11T09:36:59.254Z,3.40
2019-02-11T09:41:03.521Z,3.50
2019-02-11T09:45:10.515Z,3.80
2019-02-11T09:49:14.796Z,4.43
2019-02-11T09:53:19.922Z,3.80
2019-02-11T09:57:24.526Z,4.07
2019-02-11T10:01:28.779Z,2.93
2019-02-11T10:05:33.162Z,4.60
2019-02-11T10:09:37.297Z,3.97
2019-02-11T10:13:41.610Z,3.10
2019-02-11T10:17:45.838Z,2.80
2019-02-11T10:21:50.037Z,3.63
2019-02-11T10:25:54.385Z,3.80
2019-02-11T10:29:58.677Z,4.33
2019-02-11T10:34:02.965Z,4.07
2019-02-11T10:38:07.344Z,3.43
2019-02-11T10:42:11.519Z,3.00
2019-02-11T10:46:20.841Z,2.90
2019-02-11T10:50:21.575Z,2.80
2019-02-11T10:54:25.794Z,3.13
2019-02-11T10:58:30.090Z,3.70
2019-02-11T11:02:34.266Z,3.47
2019-02-11T11:06:38.637Z,3.70
2019-02-11T11:10:42.844Z,3.67
2019-02-11T11:14:47.116Z,3.20
2019-02-11T11:18:51.435Z,3.30
2019-02-11T11:22:55.598Z,3.97
2019-02-11T11:26:59.878Z,3.27
2019-02-11T11:31:04.199Z,3.47
2019-02-11T11:35:09.130Z,3.13
2019-02-11T11:39:25.418Z,3.60
2019-02-11T11:43:29.693Z,3.40
2019-02-11T11:47:34.650Z,2.70
2019-02-11T11:51:40.567Z,2.53
2019-02-11T11:55:44.788Z,2.70
2019-02-11T11:59:49.100Z,3.20
2019-02-11T12:03:53.754Z,3.07
2019-02-11T12:07:58.049Z,2.90
2019-02-11T12:12:02.319Z,3.10
2019-02-11T12:16:06.521Z,3.67
2019-02-11T12:20:11.868Z,3.00
2019-02-11T12:24:16.072Z,3.67
2019-02-11T12:28:20.356Z,3.33
2019-02-11T12:32:24.605Z,3.67
2019-02-11T12:36:28.889Z,3.30
2019-02-11T12:40:33.199Z,3.73
2019-02-11T12:44:37.512Z,2.70
2019-02-11T12:48:41.757Z,3.73
2019-02-11T12:52:45.963Z,4.00
2019-02-11T12:56:50.144Z,3.50
2019-02-11T13:00:54.387Z,3.43
2019-02-11T13:04:58.634Z,2.93
2019-02-11T13:09:02.884Z,3.30
2019-02-11T13:13:07.628Z,2.57
2019-02-11T13:17:15.688Z,3.60
2019-02-11T13:21:17.713Z,2.33
2019-02-11T13:25:21.969Z,2.97
2019-02-11T13:29:26.187Z,3.50
2019-02-11T13:33:30.467Z,3.23
2019-02-11T13:37:34.642Z,3.40
2019-02-11T13:41:38.886Z,3.20
2019-02-11T13:45:43.091Z,3.83
2019-02-11T13:49:47.283Z,2.97
2019-02-11T13:53:51.523Z,2.70
2019-02-11T13:57:55.783Z,3.47
2019-02-11T14:01:59.972Z,3.83
2019-02-11T14:06:04.341Z,3.33
2019-02-11T14:10:08.730Z,2.50
2019-02-11T14:14:13.235Z,3.40
2019-02-11T14:18:17.400Z,4.13
2019-02-11T14:22:21.643Z,3.40
2019-02-11T14:26:25.853Z,3.00
2019-02-11T14:30:30.063Z,3.00
2019-02-11T14:34:34.353Z,3.43
2019-02-11T14:38:38.653Z,2.87
2019-02-11T14:42:42.881Z,3.90
2019-02-11T14:46:47.101Z,3.27
2019-02-11T14:50:51.328Z,4.20
2019-02-11T14:54:55.818Z,3.47
2019-02-11T14:58:59.984Z,4.07
2019-02-11T15:03:04.210Z,3.40
2019-02-11T15:07:08.402Z,4.93
2019-02-11T15:11:12.711Z,4.63
2019-02-11T15:15:16.952Z,6.07
2019-02-11T15:19:21.136Z,4.43
2019-02-11T15:23:25.342Z,4.10
2019-02-11T15:27:29.479Z,7.03
2019-02-11T15:31:33.752Z,4.47
2019-02-11T15:35:37.877Z,4.37
2019-02-11T15:39:42.072Z,3.77
2019-02-11T15:43:46.270Z,3.93
2019-02-11T15:47:50.508Z,3.37
2019-02-11T15:51:54.723Z,3.07
2019-02-11T15:56:07.443Z,3.33
2019-02-11T16:00:05.724Z,3.93
2019-02-11T16:04:09.956Z,2.90
2019-02-11T16:08:14.175Z,3.70
2019-02-11T16:12:18.401Z,3.30
2019-02-11T16:16:22.635Z,3.03
2019-02-11T16:20:27.693Z,3.70
2019-02-11T16:24:32.011Z,3.47
2019-02-11T16:28:36.206Z,3.10
2019-02-11T16:32:40.399Z,3.77
2019-02-11T16:36:44.601Z,3.10
2019-02-11T16:40:48.770Z,3.93
2019-02-11T16:44:52.965Z,9.63
2019-02-11T16:49:00.548Z,2.97
2019-02-11T16:53:02.925Z,2.90
2019-02-11T16:57:07.055Z,3.37
2019-02-11T17:01:11.302Z,2.90
2019-02-11T17:05:15.547Z,2.87
2019-02-11T17:09:20.039Z,2.97
2019-02-11T17:13:24.527Z,3.97
2019-02-11T17:17:28.796Z,3.60
2019-02-11T17:21:33.337Z,3.13
2019-02-11T17:25:37.658Z,3.00
2019-02-11T17:29:42.015Z,2.53
2019-02-11T17:33:46.427Z,2.73
2019-02-11T17:37:50.722Z,3.50
2019-02-11T17:41:54.926Z,2.43
2019-02-11T17:45:59.023Z,2.90
2019-02-11T17:50:03.227Z,2.30
2019-02-11T17:54:08.619Z,2.13
2019-02-11T17:58:12.893Z,2.27
2019-02-11T18:02:17.159Z,2.47
2019-02-11T18:06:21.555Z,2.27
2019-02-11T18:10:25.958Z,2.27
2019-02-11T18:14:30.411Z,3.20
2019-02-11T18:18:34.607Z,2.30
2019-02-11T18:22:38.871Z,2.20
2019-02-11T18:26:43.274Z,2.20
2019-02-11T18:30:47.480Z,2.73
2019-02-11T18:34:51.729Z,2.87
2019-02-11T18:38:55.930Z,2.67
2019-02-11T18:43:02.979Z,2.77
2019-02-11T18:47:07.186Z,2.47
2019-02-11T18:51:11.478Z,2.47
2019-02-11T18:55:16.632Z,2.87
2019-02-11T18:59:24.713Z,2.30
2019-02-11T19:03:27.322Z,2.40
2019-02-11T19:07:31.649Z,2.50
2019-02-11T19:11:36.005Z,2.43
2019-02-11T19:15:40.362Z,2.40
2019-02-11T19:19:44.735Z,2.40
2019-02-11T19:23:49.119Z,2.10
2019-02-11T19:27:53.458Z,2.40
2019-02-11T19:31:57.922Z,2.40
2019-02-11T19:36:02.206Z,2.30
2019-02-11T19:40:07.518Z,2.20
2019-02-11T19:44:11.761Z,2.60
2019-02-11T19:48:16.063Z,3.00
2019-02-11T19:52:20.307Z,2.40
2019-02-11T19:56:24.502Z,3.40
2019-02-11T20:00:28.726Z,3.20
2019-02-11T20:04:33.195Z,2.73
2019-02-11T20:08:37.381Z,2.20
2019-02-11T20:12:41.657Z,2.40
2019-02-11T20:16:47.842Z,2.73
2019-02-11T20:20:52.027Z,2.43
2019-02-11T20:24:56.258Z,2.77
2019-02-11T20:29:00.519Z,2.57
2019-02-11T20:33:04.963Z,2.77
2019-02-11T20:37:09.266Z,2.30
2019-02-11T20:41:13.622Z,2.47
2019-02-11T20:45:23.026Z,3.00
2019-02-11T20:49:27.468Z,2.03
2019-02-11T20:53:31.853Z,2.27
2019-02-11T20:57:36.209Z,1.90
2019-02-11T21:01:40.663Z,2.33
2019-02-11T21:05:45.126Z,3.20
2019-02-11T21:09:49.626Z,2.80
2019-02-11T21:13:55.809Z,3.10
2019-02-11T21:18:00.210Z,2.80
2019-02-11T21:22:04.566Z,2.70
2019-02-11T21:26:09.073Z,2.37
2019-02-11T21:30:13.647Z,2.50
2019-02-11T21:34:18.083Z,2.73
2019-02-11T21:38:22.480Z,2.53
2019-02-11T21:42:26.795Z,2.80
2019-02-11T21:46:31.079Z,2.43
2019-02-11T21:50:35.291Z,2.77
2019-02-11T21:54:39.594Z,2.30
2019-02-11T21:58:43.864Z,2.33
2019-02-11T22:02:48.230Z,2.10
2019-02-11T22:06:52.447Z,4.77
2019-02-11T22:10:56.795Z,1.97
2019-02-11T22:15:01.112Z,2.57
2019-02-11T22:19:05.338Z,2.10
2019-02-11T22:23:09.483Z,1.67
2019-02-11T22:27:13.672Z,1.90
2019-02-11T22:31:17.950Z,2.67
2019-02-11T22:35:22.175Z,2.33
2019-02-11T22:39:26.394Z,2.07
2019-02-11T22:43:30.722Z,2.00
2019-02-11T22:47:34.997Z,2.60
2019-02-11T22:51:39.421Z,2.10
2019-02-11T22:55:44.339Z,2.93
2019-02-11T22:59:48.803Z,3.67
2019-02-11T23:03:53.252Z,1.90
2019-02-11T23:07:57.552Z,1.70
2019-02-11T23:12:01.974Z,2.00
2019-02-11T23:16:06.335Z,1.80
2019-02-11T23:20:10.735Z,2.37
2019-02-11T23:24:15.164Z,1.93
2019-02-11T23:28:19.549Z,2.07
2019-02-11T23:32:23.955Z,2.27
2019-02-11T23:36:28.106Z,2.07
2019-02-11T23:40:32.357Z,2.20
2019-02-11T23:44:36.587Z,2.33
2019-02-11T23:48:41.479Z,2.00
2019-02-11T23:52:45.641Z,2.67
2019-02-11T23:56:49.858Z,2.57
